Pratica Di Mare, Italy

2:24 AM CET on March 07, 2015 (GMT +0100)
Torvajanica Alta, Pomezia | Change Station
CLOSE
Current Station
Personal Weather Station
Location: Torvaianica Alta, LAZIO
Elevation: 128 ft
Nearby Weather Stations
Active Advisory: Wind

Elev 128 ft 41.63 °N, 12.49 °E | Updated 14 seconds ago

Clear
Clear
43.7 °F
Feels Like 39 °F
N
7.6
Wind Variable Wind from North
Gusts 13.0 mph

Today
High -- | Low -- °F
--% Chance of Precip.
Yesterday
High -- | Low -- °F
Precip. -- in
6:36 AM 6:07 PM
Full, 98% visible
Pressure 30.18 in
Visibility -9999.0 miles
Clouds
Windchill 39 °F
Dew Point 24 °F
Humidity 45%
Rainfall in
Snow Depth Not available.
UV Not available.
Pollen Not available.
Air Quality Not available.
Flu Activity Not available.
METAR LIRE 070055Z 36008KT CAVOK 07/M03 Q1022 RMK SKC VIS MIN 9999 WIND THR31 03011KT BLU

More Conditions Fewer Conditions

Pressure 30.18 in
Visibility -9999.0 miles
Clouds
Windchill 39 °F
Dew Point 24 °F
Humidity 45%
Rainfall in
Snow Depth Not available.
UV Not available.
Pollen Not available.
Air Quality Not available.
Flu Activity Not available.
METAR LIRE 070055Z 36008KT CAVOK 07/M03 Q1022 RMK SKC VIS MIN 9999 WIND THR31 03011KT BLU

More Conditions Fewer Conditions

10-Day Weather Forecast

Almanac

Astronomy

Mar. 07, 2015 Rise Set
Actual Time
Civil Twilight
Nautical Twilight
Astronomical Twilight
Moon
Length of Visible Light
Length of Day
Tomorrow will be .
, % of the Moon is Illuminated

Today's Extremes

Country Highs Country Lows

Community

WunderPhotos

Upload Photos

1,803,482 photos uploaded!

WunderBlogs® & News

Nearby

Air Quality

  Air Quality AQ Index Pollutant
Not available.

Snow Depth

Station Depth Elevation

Earthquake Activity

City Distance Mag. Time & Date
Minimum magnitude displayed is 2.5.

Coastal Water Temperatures

Place Temperature

Nearby Weather Stations